San Antonio, Valles Caldera, New Mexico Weather observations

Data are for 10 minute period ending at time listed.
 Day   Time   Solar   Ave.   Ave.  Ave.  Vector  Max.   Baro.   Total    
  of    of     Rad.   Air    Rel.  Wind   Wind   Wind  Press.  Precip.   
Year   Day            Temp.  Hum.  Speed  Dir.   Gust                    
2016   (MST)  Kw/m2    F      %     mph   deg.    mph    mb.     in.     
-------------------------------------------------------------------------
 206    4:30   0.00   52.7    88    0.3   322     2.4   99999.0    0.00 
 206    4:40   0.00   52.6    88    0.0     0     0.0   99999.0    0.00 
 206    4:50   0.00   51.9    89    0.0   108     1.2   99999.0    0.00 
 206    5:00   0.00   51.4    91    0.1   120     2.4   99999.0    0.00 
 206    5:10   0.00   52.4    88    3.2   131     7.8   99999.0    0.00 
 206    5:20   0.00   53.2    85    1.3   259     4.2   99999.0    0.00 
 206    5:30   0.01   52.7    86    0.0     0     0.0   99999.0    0.00 
 206    5:40   0.01   52.3    88    0.0     0     0.0   99999.0    0.00 
 206    5:50   0.02   52.5    88    0.0     0     0.0   99999.0    0.00 
 206    6:00   0.03   52.6    87    0.9   302     5.4   99999.0    0.00 
 206    6:10   0.06   53.4    85    1.8    52     4.2   99999.0    0.00 
 206    6:20   0.07   55.0    83    2.1   259     6.6   99999.0    0.00 
 206    6:30   0.10   54.8    85    2.8   138     6.0   99999.0    0.00 
 206    6:40   0.20   55.7    84    3.3   318     7.8   99999.0    0.00 
 206    6:50   0.11   58.0    73    2.3   144     7.2   99999.0    0.00 
 206    7:00   0.14   59.3    72    0.4   224     4.2   99999.0    0.00 
 206    7:10   0.24   60.7    68    0.0     0     0.0   99999.0    0.00 
 206    7:20   0.26   63.9    60    0.0   149     1.2   99999.0    0.00 
 206    7:30   0.22   64.5    60    2.7   272     4.8   99999.0    0.00 
 206    7:40   0.18   63.9    61    2.2   266     3.6   99999.0    0.00 
 206    7:50   0.17   63.9    63    1.6   277     3.0   99999.0    0.00 
 206    8:00   0.20   64.6    61    1.2   270     3.0   99999.0    0.00 
 206    8:10   0.56   68.3    54    2.4   267     4.8   99999.0    0.00 
 206    8:20   0.56   72.3    43    1.9   222     3.6   99999.0    0.00 
 206    8:30   0.49   73.3    42    3.1   145     6.0   99999.0    0.00 
 206    8:40   0.46   71.4    45    6.1   139     9.6   99999.0    0.00 
 206    8:50   0.40   71.9    41    5.0   141     7.8   99999.0    0.00 
 206    9:00   0.28   72.7    37    3.4   197     6.6   99999.0    0.00 
 206    9:10   0.27   73.1    34    2.6   236     4.8   99999.0    0.00 
 206    9:20   0.33   73.5    34    4.0   250     6.0   99999.0    0.00 
 206    9:30   0.44   74.7    33    3.5   244     5.4   99999.0    0.00 
 206    9:40   0.44   75.3    32    3.9   235     7.2   99999.0    0.00 
 206    9:50   0.40   75.3    31    2.6   234     7.2   99999.0    0.00 
 206   10:00   0.40   75.0    31    4.2   250     6.6   99999.0    0.00 
 206   10:10   0.46   75.4    30    3.8   275     7.2   99999.0    0.00 
 206   10:20   0.41   77.2    28    3.2   296     6.0   99999.0    0.00 
 206   10:30   0.28   75.0    30    3.6   211     7.2   99999.0    0.00 
 206   10:40   0.24   74.5    31    4.2   209     7.8   99999.0    0.00 
 206   10:50   0.72   76.2    31    4.5   176     7.8   99999.0    0.00 
 206   11:00   0.31   76.0    30    4.9   137     7.2   99999.0    0.00 
 206   11:10   0.82   76.6    30    6.7   137     9.6   99999.0    0.00 
 206   11:20   0.20   76.6    29    8.9   137    13.7   99999.0    0.00 
 206   11:30   0.24   73.3    33    5.3    98     9.0   99999.0    0.00 
 206   11:40   0.07   72.1    36    8.8   320    22.1   99999.0    0.02 
 206   11:50   0.03   62.0    68    6.4    27    14.9   99999.0    0.14 
 206   12:00   0.03   56.4    83    4.5    47     9.0   99999.0    0.07 
 206   12:10   0.03   55.8    86    4.7    71    10.2   99999.0    0.00 
 206   12:20   0.04   56.5    78   10.0    97    13.7   99999.0    0.02 
 206   12:30   0.05   57.6    74    7.9    79    12.5   99999.0    0.00 
 206   12:40   0.06   58.3    69    5.8    67    12.5   99999.0    0.00 
 206   12:50   0.08   58.0    74    7.3   108    11.3   99999.0    0.00 
 206   13:00   0.11   57.7    74    5.7    92     9.0   99999.0    0.00 
 206   13:10   0.18   59.0    73    4.9   349    10.8   99999.0    0.00 
 206   13:20   0.12   59.0    77    5.4    86     8.4   99999.0    0.00 
 206   13:30   0.10   59.6    76    1.5   281     4.8   99999.0    0.00 
 206   13:40   0.13   59.2    81    0.8   106     3.0   99999.0    0.00 
 206   13:50   0.20   59.7    80    1.7   260     3.6   99999.0    0.00 
 206   14:00   0.32   60.7    76    3.8   144     6.0   99999.0    0.00 
 206   14:10   0.33   61.5    79    2.7   169     4.2   99999.0    0.00 
 206   14:20   0.97   65.3    72    3.8   285     6.0   99999.0    0.00 
 206   14:30   0.91   69.8    60    4.5   270     7.2   99999.0    0.00 
 206   14:40   0.35   71.4    46    3.2   170     6.0   99999.0    0.00 
 206   14:50   0.36   71.5    49    5.6   149     7.8   99999.0    0.00 
 206   15:00   0.21   70.1    51    5.4   108     7.8   99999.0    0.00 
 206   15:10   0.24   70.8    48    2.9    80     7.8   99999.0    0.00 
 206   15:20   0.68   73.5    35    3.4    97     6.0   99999.0    0.00 
 206   15:30   0.49   76.1    28    4.7   135     8.4   99999.0    0.00 
 206   15:40   0.42   76.4    31    4.8   130     7.2   99999.0    0.00 
 206   15:50   0.41   75.4    33    4.3   141     7.8   99999.0    0.00 
 206   16:00   0.33   76.2    32    5.0   135     7.2   99999.0    0.00 
 206   16:10   0.51   77.7    27    2.3   179     4.8   99999.0    0.00 
 206   16:20   0.30   79.3    26    2.7   273     4.2   99999.0    0.00 
 206   16:30   0.15   76.5    39    2.1   182     3.6   99999.0    0.00 
 206   16:40   0.29   74.9    41    4.3   147     6.6   99999.0    0.00 
 206   16:50   0.10   74.4    38    9.4   142    17.3   99999.0    0.00 
 206   17:00   0.05   71.4    39    8.5   111    13.7   99999.0    0.00 
 206   17:10   0.04   70.8    40    8.0   104    14.3   99999.0    0.00 
 206   17:20   0.02   70.4    41    5.4    90     9.6   99999.0    0.00 
 206   17:30   0.02   70.2    43    4.2   105     8.4   99999.0    0.00 
 206   17:40   0.01   66.6    54    8.9   282    17.9   99999.0    0.01 
 206   17:50   0.01   60.7    73    6.3   342    14.3   99999.0    0.09 
 206   18:00   0.01   56.9    86    4.0    47    11.3   99999.0    0.13 
 206   18:10   0.01   55.0    88    6.0    57    11.3   99999.0    0.14 
 206   18:20   0.01   54.8    88    5.1    76     9.6   99999.0    0.02 
 206   18:30   0.02   55.0    87    5.1    69    10.2   99999.0    0.03 
 206   18:40   0.03   55.0    86    5.0    74     9.6   99999.0    0.01 
 206   18:50   0.04   55.4    85    4.4    84     8.4   99999.0    0.00 
 206   19:00   0.02   55.3    87    4.2   123     7.8   99999.0    0.00 
 206   19:10   0.01   54.6    91    3.7   102     7.8   99999.0    0.00 
 206   19:20   0.00   54.4    91    2.0   115     3.6   99999.0    0.00 
 206   19:30   0.00   54.3    91    2.7    68     4.8   99999.0    0.00 
 206   19:40   0.00   54.1    92    2.0    52     4.2   99999.0    0.00 
 206   19:50   0.00   54.1    92    2.0    42     4.2   99999.0    0.00 
 206   20:00   0.00   53.9    92    2.4    21     4.2   99999.0    0.00 
 206   20:10   0.00   53.7    92    1.2    73     2.4   99999.0    0.00 
 206   20:20   0.00   53.6    93    1.0    98     3.0   99999.0    0.00 
 206   20:30   0.00   53.6    93    0.9   298     3.6   99999.0    0.00 
 206   20:40   0.00   53.6    93    2.9    42     6.0   99999.0    0.00 
 206   20:50   0.00   53.7    93    4.7   134     6.6   99999.0    0.00 
 206   21:00   0.00   53.6    93    2.1   103     4.2   99999.0    0.00 
 206   21:10   0.00   53.7    93    5.4   117     9.6   99999.0    0.00 
 206   21:20   0.00   54.1    90    3.2   274     6.0   99999.0    0.00 
 206   21:30   0.00   53.8    92    2.1   318     4.2   99999.0    0.00 
 206   21:40   0.00   53.7    92    0.6    54     2.4   99999.0    0.00 
 206   21:50   0.00   53.8    92    4.2   121     7.8   99999.0    0.00 
 206   22:00   0.00   54.1    89    3.2    12     6.6   99999.0    0.00 
 206   22:10   0.00   53.8    91    3.1    89     6.6   99999.0    0.00 
 206   22:20   0.00   53.8    90    2.6   100     4.8   99999.0    0.00 
 206   22:30   0.00   53.4    92    1.6    61     3.0   99999.0    0.00 
 206   22:40   0.00   53.2    93    2.8    32     4.2   99999.0    0.00 
 206   22:50   0.00   53.0    93    1.1     4     3.6   99999.0    0.00 
 206   23:00   0.00   52.9    93    0.5   346     1.8   99999.0    0.00 
 206   23:10   0.00   52.4    93    1.3    38     3.0   99999.0    0.00 
 206   23:20   0.00   52.1    94    1.7    55     3.0   99999.0    0.00 
 206   23:30   0.00   51.8    94    1.7    47     3.6   99999.0    0.00 
 206   23:40   0.00   51.7    94    1.2    28     3.0   99999.0    0.00 
 206   23:50   0.00   51.7    94    0.4    45     1.8   99999.0    0.00 
 207    0:00   0.00   51.8    94    0.2   333     2.4   99999.0    0.00 
 207    0:10   0.00   51.7    94    1.2   330     3.0   99999.0    0.00 
 207    0:20   0.00   51.6    94    0.7    31     2.4   99999.0    0.00 
 207    0:30   0.00   51.5    94    1.2     0     2.4   99999.0    0.00 
 207    0:40   0.00   51.5    95    0.7    55     1.8   99999.0    0.00 
 207    0:50   0.00   51.2    94    2.8    34     4.2   99999.0    0.00 
 207    1:00   0.00   51.0    95    0.5    18     3.6   99999.0    0.00 
 207    1:10   0.00   50.6    94    1.3    69     2.4   99999.0    0.00 
 207    1:20   0.00   50.6    95    0.7   298     3.0   99999.0    0.00 
 207    1:30   0.00   50.6    95    1.3   328     3.6   99999.0    0.00 
 207    1:40   0.00   50.8    95    2.1   337     3.6   99999.0    0.00 
 207    1:50   0.00   50.9    95    0.9    84     2.4   99999.0    0.00 
 207    2:00   0.00   50.3    95    0.6     7     2.4   99999.0    0.00 
 207    2:10   0.00   50.0    95    1.1    58     3.6   99999.0    0.00 
 207    2:20   0.00   49.5    95    2.0    53     3.6   99999.0    0.00 
 207    2:30   0.00   49.0    95    1.0    32     2.4   99999.0    0.00 
 207    2:40   0.00   48.7    95    0.8    15     2.4   99999.0    0.00 
 207    2:50   0.00   48.5    95    1.5   316     4.8   99999.0    0.00 
 207    3:00   0.00   48.4    95    1.8    22     4.2   99999.0    0.00 
 207    3:10   0.00   47.8    95    0.7   124     2.4   99999.0    0.00 
 207    3:20   0.00   47.6    95    3.0   321     4.8   99999.0    0.00 
 207    3:30   0.00   47.7    95    1.8   327     4.2   99999.0    0.00 
 207    3:40   0.00   47.7    95    0.4    81     1.8   99999.0    0.00 
 207    3:50   0.00   47.5    95    0.2    61     1.8   99999.0    0.00 
 207    4:00   0.00   47.6    96    0.1   101     1.8   99999.0    0.00 
 207    4:10   0.00   47.5    96    0.0   307     1.2   99999.0    0.00 
 207    4:20   0.00   47.4    96    1.0   302     2.4   99999.0    0.00 

Return to San Antonio, Valles Caldera graphs page.


Western Regional Climate Center,wrcc@dri.edu